Aeroporto :
LOGIN :

Iscrizione | Disclaimer

   EN    FR    IT 

 










Sommario :    VFR   VFR Marginale   IFR   IFR Intensivo   IFR Molto Intensivo
Visibilità : 
Base nubi : 
>= 8 km
>= 3000ft
5 / 8 km
1000 / 3000 ft
1500m / 5 km
500 / 1000 ft
800 / 1500m
200 / 500 ft
< 800m
< 200 ft
Simboli :   Temporali  Nebbia  Neve Forte  Precipitazioni Forti  Vento > 20 kt
SIGMETs :   Varie  Temporali  Ghiacco  Turbolenza  Onda orograficha  Ceneri Vulcaniche






- Altitudine del aeroporto : 2356 ft


LZTT - Poprad Tatry

ULTIMO METAR :
  • 131800Z 18005KT 150V220 9999 -RA SCT020 OVC033 11/09 Q1003

METARs OBSOLETI :
  • 131730Z 20006KT 150V240 8000 -RA SCT020 BKN033 11/09 Q1002
  • 131700Z VRB02KT 9999 -RA BKN023 12/08 Q1002 NOSIG
  • 131630Z 36005KT 9999 BKN023 11/09 Q1002 NOSIG
  • 131600Z 03004KT 350V080 9999 -RA BKN023 11/09 Q1002 NOSIG
  • 131530Z 05004KT 020V100 9999 BKN020 11/09 Q1002 NOSIG

TAF TAF LZTT
Valido dal 13 a 18 ore il 14 a 18 ore UTC


131700Z 1318/1418 05005KT 9999 FEW006 BKN023
PROB40
TEMPO 1318/1400 14008KT 2000 RA BKN006 BKN015
PROB40
TEMPO 1402/1406 VRB02KT 0800 BCFG BKN002
BECMG 1406/1408 21005KT FEW017



MetMap, La meteo Aeronautica in un colpo d'occhio ! - Copyright ORBIFLY Dicembre 2007 - Disclaimer

ORBIFLY MET'MAP TEAM :

Programmazione e sviluppo : Alexandra Zaïnal
Concezione e sviluppo : Baudouin d'Aumeries
Co-Programmazione e sviluppo : Marc-Olivier Méhu
Supporto tecnico e logistico : Manuel Goepfert
Aiuto per la traduzione : Arnaldo La Scala

Contatto : metmap@orbifly.com




FONTI E CREDITI :

   NOAA